This is the latest recevied weather packets stored in our database for station/object DC0PP-10. If no packets are shown the sender has not sent any weather packets the latest 10 day(s).
| Time | Temp. | Humidity | Pressure | Rain* | Wind** | Luminosity | Snow |
|---|---|---|---|---|---|---|---|
| 1778178358 | 15° C | 79% | 1017.4 hPa | - | - | - | - |
| 1778177458 | 15.56° C | 76% | 1017.3 hPa | - | - | - | - |
| 1778176557 | 16.67° C | 67% | 1017.1 hPa | - | - | - | - |
| 1778175657 | 16.11° C | 68% | 1017.1 hPa | - | - | - | - |
| 1778174757 | 15.56° C | 68% | 1017 hPa | - | - | - | - |
| 1778173857 | 16.11° C | 66% | 1016.9 hPa | - | - | - | - |
| 1778172957 | 16.67° C | 63% | 1017 hPa | - | - | - | - |
| 1778172057 | 17.22° C | 63% | 1017 hPa | - | - | - | - |
| 1778171156 | 17.22° C | 63% | 1017 hPa | - | - | - | - |
| 1778170256 | 16.67° C | 61% | 1016.9 hPa | - | - | - | - |
| 1778169356 | 17.22° C | 58% | 1016.9 hPa | - | - | - | - |
| 1778168456 | 18.33° C | 59% | 1017 hPa | - | - | - | - |
| 1778167556 | 18.33° C | 62% | 1017 hPa | - | - | - | - |
| 1778166656 | 17.78° C | 65% | 1017.1 hPa | - | - | - | - |
| 1778165755 | 17.22° C | 66% | 1017 hPa | - | - | - | - |
| 1778164855 | 16.67° C | 67% | 1017.2 hPa | - | - | - | - |
| 1778163955 | 16.67° C | 68% | 1017.3 hPa | - | - | - | - |
| 1778163055 | 16.67° C | 68% | 1017.3 hPa | - | - | - | - |
| 1778162155 | 16.67° C | 68% | 1017.3 hPa | - | - | - | - |
| 1778161254 | 16.67° C | 65% | 1017.3 hPa | - | - | - | - |
| 1778160353 | 16.67° C | 69% | 1017.4 hPa | - | - | - | - |
| 1778159453 | 16.67° C | 67% | 1017.4 hPa | - | - | - | - |
| 1778158553 | 16.67° C | 67% | 1017.3 hPa | - | - | - | - |
| 1778157653 | 16.67° C | 68% | 1017.2 hPa | - | - | - | - |
| 1778156756 | 16.67° C | 70% | 1017.2 hPa | - | - | - | - |
* Rain since midnight (hover to see other rain measurements)
** Current wind speed in m/s (hover to see current wind gust speed)